Time;durP1;ratioP1;P1;durP2;ratioP2;P2;SDS_P1;SDS_P2;PMS_P1;PMS_P2;Temp;Humidity;BMP_temperature;BMP_pressure;BME280_temperature;BME280_humidity;BME280_pressure;Samples;Min_cycle;Max_cycle;Signal;HPM_P1;HPM_P2
2023/02/13 00:01:15;;;;;;;33.03;14.18;;;7.90;99.90;;;;;;4990912;28;25064;-72
2023/02/13 00:03:40;;;;;;;35.65;14.88;;;8.00;99.90;;;;;;4997089;28;25052;-71
2023/02/13 00:06:07;;;;;;;33.53;15.02;;;8.00;99.90;;;;;;4999087;28;25057;-71
2023/02/13 00:08:33;;;;;;;36.45;16.30;;;8.00;99.90;;;;;;4995275;28;25058;-72
2023/02/13 00:10:58;;;;;;;35.65;14.55;;;7.90;99.90;;;;;;5000527;28;25103;-72
2023/02/13 00:13:24;;;;;;;28.27;13.43;;;8.00;99.90;;;;;;4989394;28;25079;-73
2023/02/13 00:15:57;;;;;;;33.95;14.10;;;8.00;99.90;;;;;;4998211;28;25147;-71
2023/02/13 00:18:23;;;;;;;39.40;16.15;;;7.90;99.90;;;;;;5004635;28;25052;-71
2023/02/13 00:21:10;;;;;;;35.92;15.93;;;7.80;99.90;;;;;;5000402;28;25126;-71
2023/02/13 00:23:36;;;;;;;33.97;14.73;;;7.80;99.90;;;;;;5006523;28;25160;-72
2023/02/13 00:26:08;;;;;;;36.95;16.35;;;7.80;99.90;;;;;;5005811;28;25069;-73
2023/02/13 00:28:34;;;;;;;38.42;16.85;;;7.80;99.90;;;;;;5008278;28;25077;-71
2023/02/13 00:31:10;;;;;;;31.15;14.38;;;7.80;99.90;;;;;;5008168;28;25054;-72
2023/02/13 00:33:36;;;;;;;36.17;15.43;;;7.80;99.90;;;;;;5005726;28;25085;-72
2023/02/13 00:36:14;;;;;;;37.70;15.98;;;7.90;99.90;;;;;;4988014;28;25063;-71
2023/02/13 00:38:41;;;;;;;39.90;15.90;;;7.80;99.90;;;;;;5001459;28;25067;-72
2023/02/13 00:41:07;;;;;;;36.85;15.68;;;7.80;99.90;;;;;;5005504;28;25162;-71
2023/02/13 00:43:33;;;;;;;40.75;16.33;;;7.80;99.90;;;;;;5002216;28;25077;-70
2023/02/13 00:45:59;;;;;;;36.20;16.48;;;7.80;99.90;;;;;;5008261;28;25058;-71
2023/02/13 00:48:26;;;;;;;33.22;14.88;;;7.90;99.90;;;;;;5005818;28;25056;-72
2023/02/13 00:50:51;;;;;;;31.60;15.55;;;7.80;99.90;;;;;;5012259;28;25076;-71
2023/02/13 00:53:21;;;;;;;34.95;16.08;;;7.90;99.90;;;;;;4994335;28;25076;-71
2023/02/13 00:55:47;;;;;;;36.13;15.93;;;7.90;99.90;;;;;;5006464;28;25139;-71
2023/02/13 00:58:13;;;;;;;41.72;15.57;;;7.90;99.90;;;;;;5007399;28;25155;-73
2023/02/13 01:00:39;;;;;;;32.90;15.65;;;7.80;99.90;;;;;;5004821;28;25130;-73
2023/02/13 01:03:05;;;;;;;38.95;15.50;;;7.90;99.90;;;;;;4998239;28;25096;-71
2023/02/13 01:05:31;;;;;;;31.85;15.18;;;7.90;99.90;;;;;;5003448;28;25054;-71
2023/02/13 01:07:56;;;;;;;38.13;16.58;;;7.90;99.90;;;;;;5007349;28;25163;-72
2023/02/13 01:10:22;;;;;;;38.53;16.02;;;7.90;99.90;;;;;;4977286;28;25099;-71
2023/02/13 01:12:48;;;;;;;36.42;16.17;;;7.80;99.90;;;;;;5001864;28;25116;-70
2023/02/13 01:15:13;;;;;;;37.00;16.10;;;7.90;99.90;;;;;;4991762;28;25080;-71
2023/02/13 01:17:39;;;;;;;38.65;16.10;;;7.90;99.90;;;;;;5002016;28;25086;-70
2023/02/13 01:20:07;;;;;;;33.03;15.27;;;7.80;99.90;;;;;;4996824;28;25063;-71
2023/02/13 01:22:32;;;;;;;37.17;15.18;;;7.90;99.90;;;;;;4989574;28;25047;-73
2023/02/13 01:24:58;;;;;;;38.03;16.45;;;7.90;99.90;;;;;;4993474;28;25052;-71
2023/02/13 01:27:26;;;;;;;37.33;16.55;;;7.90;99.90;;;;;;4995833;28;25062;-72
2023/02/13 01:29:51;;;;;;;36.78;14.82;;;7.90;99.90;;;;;;5003937;28;25071;-72
2023/02/13 01:32:17;;;;;;;39.10;18.00;;;8.00;99.90;;;;;;4999314;28;25138;-72
2023/02/13 01:34:42;;;;;;;36.92;16.15;;;7.90;99.90;;;;;;4990753;28;25136;-71
2023/02/13 01:37:08;;;;;;;42.35;15.25;;;7.90;99.90;;;;;;4997288;28;25091;-71
2023/02/13 01:39:33;;;;;;;39.03;15.38;;;7.90;99.90;;;;;;4995328;28;25093;-71
2023/02/13 01:41:59;;;;;;;40.50;15.48;;;7.90;99.90;;;;;;5001940;28;25060;-70
2023/02/13 01:44:52;;;;;;;41.58;16.45;;;7.80;99.90;;;;;;5004264;28;25051;-70
2023/02/13 01:47:42;;;;;;;37.83;15.43;;;7.70;99.90;;;;;;5004293;28;25175;-71
2023/02/13 01:50:11;;;;;;;38.58;15.77;;;7.80;99.90;;;;;;5003868;28;25059;-70
2023/02/13 01:52:43;;;;;;;40.65;16.33;;;7.90;99.90;;;;;;4997823;28;25066;-71
2023/02/13 01:55:10;;;;;;;41.60;15.90;;;7.80;99.90;;;;;;5007614;28;25081;-70
2023/02/13 01:57:37;;;;;;;36.22;15.43;;;7.90;99.90;;;;;;4994815;28;25101;-71
2023/02/13 02:00:09;;;;;;;32.67;14.48;;;7.80;99.90;;;;;;5007906;28;25066;-71
2023/02/13 02:02:40;;;;;;;37.35;15.50;;;7.90;99.90;;;;;;4995782;28;25111;-73
2023/02/13 02:05:07;;;;;;;36.67;14.35;;;7.90;99.90;;;;;;5005672;28;25159;-72
2023/02/13 02:07:34;;;;;;;45.63;14.75;;;7.90;99.90;;;;;;4996405;28;25136;-71
2023/02/13 02:10:06;;;;;;;44.53;17.08;;;8.00;99.90;;;;;;4971654;28;25091;-71
2023/02/13 02:12:58;;;;;;;42.05;16.48;;;8.00;99.90;;;;;;4999260;28;25073;-71
2023/02/13 02:15:24;;;;;;;38.97;16.95;;;7.90;99.90;;;;;;4993332;28;25079;-70
2023/02/13 02:17:49;;;;;;;37.55;15.32;;;7.90;99.90;;;;;;4996237;28;25156;-70
2023/02/13 02:20:32;;;;;;;38.95;16.63;;;7.90;99.90;;;;;;4994935;28;25099;-71
2023/02/13 02:23:07;;;;;;;35.88;15.55;;;7.90;99.90;;;;;;4993429;28;25054;-72
2023/02/13 02:25:41;;;;;;;40.95;16.90;;;8.00;99.90;;;;;;4995959;28;25073;-71
2023/02/13 02:28:27;;;;;;;39.13;15.60;;;7.90;99.90;;;;;;5002194;28;25053;-72
2023/02/13 02:31:14;;;;;;;36.55;16.17;;;7.80;99.90;;;;;;5010870;28;25078;-72
2023/02/13 02:33:52;;;;;;;33.22;15.68;;;7.90;99.90;;;;;;5003725;28;25148;-71
2023/02/13 02:36:50;;;;;;;39.38;16.67;;;7.90;99.90;;;;;;4998831;28;25081;-72
2023/02/13 02:39:43;;;;;;;38.97;15.90;;;7.80;99.90;;;;;;4999446;28;25116;-71
2023/02/13 02:42:21;;;;;;;35.85;14.93;;;7.90;99.90;;;;;;4999858;28;25100;-71
2023/02/13 02:45:08;;;;;;;38.95;16.67;;;8.00;99.90;;;;;;5006642;28;25063;-71
2023/02/13 02:50:52;;;;;;;47.72;16.85;;;8.00;99.90;;;;;;4995627;28;25153;-72
2023/02/13 02:53:40;;;;;;;38.72;15.40;;;8.00;99.90;;;;;;4997846;28;25098;-72
2023/02/13 02:56:10;;;;;;;41.35;16.13;;;8.00;99.90;;;;;;5006004;28;25063;-72
2023/02/13 03:07:34;;;;;;;33.72;15.32;;;8.00;99.90;;;;;;5009383;28;25065;-71
2023/02/13 03:22:17;;;;;;;35.00;15.13;;;8.10;99.90;;;;;;5001810;28;25115;-72
2023/02/13 03:22:17;;;;;;;38.30;15.65;;;8.10;99.90;;;;;;4999719;28;25077;-72
2023/02/13 03:25:14;;;;;;;32.92;14.85;;;8.30;99.90;;;;;;4997135;28;25143;-73
2023/02/13 03:30:47;;;;;;;42.25;16.05;;;8.20;99.90;;;;;;4997540;28;25066;-72
2023/02/13 03:33:25;;;;;;;41.17;16.25;;;8.20;99.90;;;;;;5004482;28;25173;-73
2023/02/13 03:38:51;;;;;;;41.63;17.30;;;7.90;99.90;;;;;;5004264;28;25062;-73
2023/02/13 03:41:27;;;;;;;40.40;17.45;;;7.90;99.90;;;;;;4996404;28;25157;-71
2023/02/13 03:43:53;;;;;;;42.67;17.75;;;7.90;99.90;;;;;;4993122;28;25060;-71
2023/02/13 03:46:19;;;;;;;40.72;16.98;;;8.00;99.90;;;;;;5003734;28;25080;-71
2023/02/13 03:51:35;;;;;;;41.65;17.08;;;7.90;99.90;;;;;;5000600;28;25117;-72
2023/02/13 03:54:06;;;;;;;47.75;17.40;;;8.00;99.90;;;;;;4999836;28;25138;-72
2023/02/13 03:59:23;;;;;;;44.47;18.88;;;7.90;99.90;;;;;;4996908;28;25101;-71
2023/02/13 04:02:13;;;;;;;42.90;17.35;;;7.90;99.90;;;;;;4992618;28;25166;-74
2023/02/13 04:04:51;;;;;;;45.50;18.60;;;7.80;99.90;;;;;;4999385;28;25061;-71
2023/02/13 04:07:29;;;;;;;43.42;18.13;;;7.90;99.90;;;;;;4991931;28;25055;-72
2023/02/13 04:09:59;;;;;;;48.83;19.55;;;7.90;99.90;;;;;;4977010;28;25110;-71
2023/02/13 04:12:59;;;;;;;43.90;19.25;;;7.90;99.90;;;;;;4998306;28;25070;-71
2023/02/13 04:15:28;;;;;;;44.95;18.13;;;7.90;99.90;;;;;;4999823;28;25068;-71
2023/02/13 04:18:07;;;;;;;43.70;17.20;;;7.90;99.90;;;;;;4992909;28;25162;-71
2023/02/13 04:20:33;;;;;;;50.40;18.77;;;7.80;99.90;;;;;;5009762;28;25133;-71
2023/02/13 04:23:07;;;;;;;49.75;18.65;;;7.90;99.90;;;;;;5003438;28;25153;-71
2023/02/13 04:25:34;;;;;;;44.28;17.63;;;7.90;99.90;;;;;;5000836;28;25079;-70
2023/02/13 04:27:59;;;;;;;40.97;18.00;;;7.90;99.90;;;;;;4989617;28;25178;-72
2023/02/13 04:30:25;;;;;;;41.03;17.52;;;7.90;99.90;;;;;;4988950;28;25103;-72
2023/02/13 04:32:51;;;;;;;41.60;17.10;;;7.90;99.90;;;;;;5000853;28;25099;-72
2023/02/13 04:35:17;;;;;;;42.95;17.50;;;8.00;99.90;;;;;;5004015;28;25070;-75
2023/02/13 04:37:43;;;;;;;42.10;17.73;;;7.90;99.90;;;;;;5010746;28;25074;-72
2023/02/13 04:40:09;;;;;;;48.75;17.95;;;7.90;99.90;;;;;;5017830;28;25075;-72
2023/02/13 04:42:35;;;;;;;47.10;18.48;;;7.90;99.90;;;;;;5017377;28;25102;-72
2023/02/13 04:45:00;;;;;;;39.75;17.98;;;8.00;99.90;;;;;;5009865;28;25051;-73
2023/02/13 04:47:26;;;;;;;42.58;18.33;;;8.10;99.90;;;;;;5001780;28;25069;-72
2023/02/13 04:49:51;;;;;;;52.40;20.15;;;8.00;99.90;;;;;;5007668;28;25053;-70
2023/02/13 04:52:17;;;;;;;46.40;19.08;;;7.90;99.90;;;;;;5008507;28;25090;-72
2023/02/13 04:54:43;;;;;;;51.72;18.40;;;8.00;99.90;;;;;;5002500;28;25074;-71
2023/02/13 04:57:08;;;;;;;48.88;20.63;;;7.90;99.90;;;;;;4996837;28;25144;-72
2023/02/13 04:59:34;;;;;;;50.28;19.95;;;7.90;99.90;;;;;;5006631;28;25054;-71
2023/02/13 05:02:00;;;;;;;43.85;19.40;;;8.00;99.90;;;;;;4999566;28;25051;-72
2023/02/13 05:04:25;;;;;;;48.13;18.52;;;8.00;99.90;;;;;;5001686;28;25077;-72
2023/02/13 05:06:51;;;;;;;49.95;20.42;;;8.10;99.90;;;;;;4997969;28;25102;-72
2023/02/13 05:09:17;;;;;;;51.92;20.13;;;8.00;99.90;;;;;;4992907;28;25058;-72
2023/02/13 05:11:42;;;;;;;43.10;18.67;;;8.00;99.90;;;;;;5000002;28;25145;-71
2023/02/13 05:14:09;;;;;;;47.95;17.35;;;8.10;99.90;;;;;;5002071;28;25154;-72
2023/02/13 05:16:35;;;;;;;48.05;20.13;;;8.20;99.90;;;;;;5002548;28;25107;-71
2023/02/13 05:19:01;;;;;;;45.50;18.92;;;8.20;99.90;;;;;;5004682;28;25092;-72
2023/02/13 05:24:21;;;;;;;54.15;20.83;;;8.20;99.90;;;;;;4958528;28;25119;-71
2023/02/13 05:26:47;;;;;;;45.95;19.05;;;8.00;99.90;;;;;;4992809;28;25134;-71
2023/02/13 05:29:21;;;;;;;48.95;19.58;;;7.90;99.90;;;;;;5002885;28;25058;-72
2023/02/13 05:31:51;;;;;;;50.03;19.65;;;7.90;99.90;;;;;;5007111;28;25051;-72
2023/02/13 05:34:17;;;;;;;48.28;19.73;;;8.00;99.90;;;;;;5000320;28;25062;-72
2023/02/13 05:36:43;;;;;;;52.67;20.65;;;7.90;99.90;;;;;;4998038;28;25069;-73
2023/02/13 05:39:08;;;;;;;48.78;17.92;;;7.90;99.90;;;;;;4997678;28;25041;-74
2023/02/13 05:41:34;;;;;;;45.90;20.15;;;8.00;99.90;;;;;;5000731;28;25160;-72
2023/02/13 05:44:00;;;;;;;50.83;19.55;;;8.00;99.90;;;;;;4995362;28;25076;-72
2023/02/13 05:46:25;;;;;;;49.63;20.08;;;8.00;99.90;;;;;;4979155;28;25054;-71
2023/02/13 05:48:51;;;;;;;49.50;21.08;;;8.00;99.90;;;;;;5000023;28;25058;-72
2023/02/13 05:51:18;;;;;;;52.25;19.08;;;7.90;99.90;;;;;;4989517;28;25060;-71
2023/02/13 05:53:43;;;;;;;48.92;19.30;;;7.80;99.90;;;;;;5002150;28;25070;-72
2023/02/13 05:56:09;;;;;;;58.65;21.50;;;7.70;99.90;;;;;;5005529;28;25120;-71
2023/02/13 05:58:34;;;;;;;41.95;18.48;;;7.70;99.90;;;;;;5000263;28;25092;-71
2023/02/13 06:01:00;;;;;;;53.58;19.08;;;7.60;99.90;;;;;;4999259;28;25171;-72
2023/02/13 06:03:28;;;;;;;43.22;19.88;;;7.60;99.90;;;;;;5007789;28;25156;-73
2023/02/13 06:05:54;;;;;;;51.85;21.27;;;7.60;99.90;;;;;;5000499;28;25131;-72
2023/02/13 06:08:20;;;;;;;50.58;19.42;;;7.50;99.90;;;;;;5006430;28;25167;-72
2023/02/13 06:10:47;;;;;;;49.05;20.08;;;7.40;99.90;;;;;;5007351;28;25074;-71
2023/02/13 06:13:13;;;;;;;50.47;20.27;;;7.40;99.90;;;;;;5000283;28;25136;-71
2023/02/13 06:15:39;;;;;;;51.92;19.88;;;7.40;99.90;;;;;;5006128;28;25123;-72
2023/02/13 06:18:04;;;;;;;55.63;21.98;;;7.30;99.90;;;;;;4998773;28;25086;-72
2023/02/13 06:20:30;;;;;;;54.05;21.85;;;7.30;99.90;;;;;;4999083;28;25111;-72
2023/02/13 06:22:55;;;;;;;50.95;21.33;;;7.20;99.90;;;;;;5001536;28;25075;-73
2023/02/13 06:25:21;;;;;;;52.42;19.63;;;7.10;99.90;;;;;;5000825;28;25062;-72
2023/02/13 06:27:47;;;;;;;55.28;20.08;;;7.10;99.90;;;;;;4999759;28;25048;-71
2023/02/13 06:30:14;;;;;;;52.63;21.08;;;7.00;99.90;;;;;;4994680;28;25077;-72
2023/02/13 06:32:40;;;;;;;54.03;21.85;;;7.00;99.90;;;;;;4984076;28;25127;-73
2023/02/13 06:35:06;;;;;;;53.22;20.90;;;6.90;99.90;;;;;;4985916;28;25071;-73
2023/02/13 06:37:32;;;;;;;56.70;22.08;;;7.00;99.90;;;;;;4990258;28;25070;-71
2023/02/13 06:39:57;;;;;;;54.65;21.85;;;7.00;99.90;;;;;;4991020;28;25070;-72
2023/02/13 06:42:23;;;;;;;52.83;22.42;;;6.90;99.90;;;;;;4996591;28;25089;-72
2023/02/13 06:44:48;;;;;;;50.72;22.35;;;6.90;99.90;;;;;;4991155;28;25069;-72
2023/02/13 06:47:14;;;;;;;62.22;22.63;;;6.80;99.90;;;;;;4994949;28;25057;-72
2023/02/13 06:49:40;;;;;;;52.90;22.00;;;6.80;99.90;;;;;;4989218;28;25140;-72
2023/02/13 06:52:05;;;;;;;57.72;22.63;;;6.90;99.90;;;;;;4992577;28;25077;-71
2023/02/13 06:54:31;;;;;;;55.70;22.08;;;6.80;99.90;;;;;;4990124;28;25178;-71
2023/02/13 06:56:56;;;;;;;60.45;22.92;;;6.70;99.90;;;;;;4990771;28;25062;-70
2023/02/13 06:59:22;;;;;;;63.25;24.08;;;6.80;99.90;;;;;;5000774;28;25136;-71
2023/02/13 07:01:47;;;;;;;52.58;22.75;;;6.80;99.90;;;;;;4994834;28;25088;-72
2023/02/13 07:04:13;;;;;;;65.18;23.80;;;6.80;99.90;;;;;;5003128;28;25151;-71
2023/02/13 07:06:39;;;;;;;61.45;22.17;;;6.80;99.90;;;;;;4977301;28;25080;-71
2023/02/13 07:09:04;;;;;;;60.90;25.27;;;6.80;99.90;;;;;;4996760;28;25060;-71
2023/02/13 07:11:30;;;;;;;61.40;23.17;;;6.80;99.90;;;;;;4993805;28;25089;-70
2023/02/13 07:13:56;;;;;;;58.70;22.50;;;6.80;99.90;;;;;;5001833;28;25049;-72
2023/02/13 07:16:22;;;;;;;65.22;24.10;;;6.80;99.90;;;;;;4987159;28;25067;-71
2023/02/13 07:18:47;;;;;;;60.90;21.80;;;6.80;99.90;;;;;;4994184;28;25148;-71
2023/02/13 07:21:13;;;;;;;60.70;25.23;;;6.80;99.90;;;;;;4978063;28;25078;-72
2023/02/13 07:23:38;;;;;;;64.50;27.20;;;6.80;99.90;;;;;;5003655;28;25058;-71
2023/02/13 07:26:04;;;;;;;59.35;23.80;;;6.80;99.90;;;;;;5001540;28;25148;-72
2023/02/13 07:28:30;;;;;;;61.50;24.25;;;6.80;99.90;;;;;;4998691;28;25096;-72
2023/02/13 07:30:56;;;;;;;59.22;23.05;;;6.90;99.90;;;;;;5000042;28;25082;-73
2023/02/13 07:33:22;;;;;;;61.47;23.50;;;6.80;99.90;;;;;;4997325;28;25122;-72
2023/02/13 07:35:50;;;;;;;61.78;23.52;;;6.70;99.90;;;;;;4980052;28;25071;-71
2023/02/13 07:38:16;;;;;;;60.22;24.52;;;6.70;99.90;;;;;;4986234;28;25079;-71
2023/02/13 07:40:42;;;;;;;56.50;23.88;;;6.60;99.90;;;;;;4999009;28;25087;-71
2023/02/13 07:43:07;;;;;;;57.65;22.42;;;6.60;99.90;;;;;;4985703;28;25075;-71
2023/02/13 07:45:33;;;;;;;69.85;25.10;;;6.70;99.90;;;;;;4997980;28;25059;-74
2023/02/13 07:47:59;;;;;;;55.70;22.42;;;6.70;99.90;;;;;;4994483;28;25103;-72
2023/02/13 07:50:25;;;;;;;58.03;22.88;;;6.70;99.90;;;;;;4966659;28;25084;-71
2023/02/13 07:52:58;;;;;;;59.65;22.48;;;6.70;99.90;;;;;;5003460;28;25068;-71
2023/02/13 07:55:24;;;;;;;57.65;24.02;;;6.70;99.90;;;;;;4998718;28;25065;-71
2023/02/13 07:57:50;;;;;;;56.55;23.05;;;6.80;99.90;;;;;;4992353;28;25060;-71
2023/02/13 08:00:16;;;;;;;57.88;24.33;;;6.80;99.90;;;;;;5005737;28;25137;-71
2023/02/13 08:02:42;;;;;;;58.55;22.80;;;6.80;99.90;;;;;;5002833;28;25083;-72
2023/02/13 08:05:08;;;;;;;62.83;24.52;;;6.80;99.90;;;;;;5002951;28;25072;-72
2023/02/13 08:07:34;;;;;;;59.92;23.50;;;6.80;99.90;;;;;;5001116;28;25159;-71
2023/02/13 08:12:44;;;;;;;68.88;25.25;;;7.00;99.90;;;;;;5002811;28;25073;-71
2023/02/13 08:15:14;;;;;;;68.55;24.95;;;7.00;99.90;;;;;;5001787;28;25060;-73
2023/02/13 08:17:40;;;;;;;66.57;24.85;;;7.10;99.90;;;;;;5002528;28;25147;-72
2023/02/13 08:20:09;;;;;;;61.90;24.60;;;7.20;99.90;;;;;;4987096;28;25066;-71
2023/02/13 08:22:36;;;;;;;61.08;25.10;;;7.10;99.90;;;;;;4980539;28;25112;-72
2023/02/13 08:25:03;;;;;;;57.53;22.60;;;7.20;99.90;;;;;;4987265;28;25104;-70
2023/02/13 08:27:29;;;;;;;69.50;25.92;;;7.20;99.90;;;;;;5008343;28;25069;-71
2023/02/13 08:29:55;;;;;;;60.95;26.30;;;7.10;99.90;;;;;;5001251;28;25059;-72
2023/02/13 08:32:22;;;;;;;69.47;25.92;;;7.20;99.90;;;;;;4999184;28;25082;-71
2023/02/13 08:34:48;;;;;;;72.75;27.30;;;7.40;99.90;;;;;;4998649;28;25170;-71
2023/02/13 08:37:13;;;;;;;67.22;27.10;;;7.40;99.90;;;;;;4983531;28;25122;-71
2023/02/13 08:39:39;;;;;;;60.97;26.65;;;7.30;99.90;;;;;;4988688;28;25083;-71
2023/02/13 08:42:04;;;;;;;68.97;26.58;;;7.40;99.90;;;;;;4997639;28;25053;-69
2023/02/13 08:44:30;;;;;;;71.55;27.35;;;7.40;99.90;;;;;;4995008;28;25064;-72
2023/02/13 08:46:56;;;;;;;68.78;28.77;;;7.30;99.90;;;;;;4996455;28;25158;-73
2023/02/13 08:49:22;;;;;;;75.03;27.25;;;7.30;99.90;;;;;;5004555;28;25151;-74
2023/02/13 08:51:48;;;;;;;68.40;26.45;;;7.30;99.90;;;;;;4997611;28;25065;-72
2023/02/13 08:54:14;;;;;;;66.90;26.65;;;7.40;99.90;;;;;;4994075;28;25135;-73
2023/02/13 08:56:40;;;;;;;74.30;26.15;;;7.40;99.90;;;;;;4973251;28;25092;-72
2023/02/13 08:59:06;;;;;;;72.25;26.92;;;7.50;99.90;;;;;;4998681;28;25061;-72
2023/02/13 09:01:32;;;;;;;67.38;25.83;;;7.40;99.90;;;;;;4991400;28;25080;-72
2023/02/13 09:03:57;;;;;;;74.15;28.65;;;7.40;99.90;;;;;;4994656;28;25065;-73
2023/02/13 09:06:25;;;;;;;68.95;26.00;;;7.70;99.90;;;;;;4993927;28;25071;-72
2023/02/13 09:08:50;;;;;;;74.28;26.45;;;7.70;99.90;;;;;;4994287;28;25095;-73
2023/02/13 09:11:16;;;;;;;72.70;27.10;;;7.50;99.90;;;;;;4995932;28;25096;-72
2023/02/13 09:13:42;;;;;;;66.78;27.15;;;7.40;99.90;;;;;;4978814;28;25126;-71
2023/02/13 09:16:09;;;;;;;68.10;25.20;;;7.40;99.90;;;;;;4993680;28;25082;-72
2023/02/13 09:18:34;;;;;;;63.95;25.98;;;7.50;99.90;;;;;;5001079;28;25066;-71
2023/02/13 09:21:06;;;;;;;65.55;27.58;;;7.50;99.90;;;;;;5004579;28;25123;-74
2023/02/13 09:23:34;;;;;;;62.65;25.88;;;7.60;99.90;;;;;;4998063;28;25061;-74
2023/02/13 09:26:02;;;;;;;74.50;29.90;;;7.80;99.90;;;;;;4995713;28;25115;-70
2023/02/13 09:28:29;;;;;;;67.32;29.65;;;7.90;99.90;;;;;;4988919;28;25149;-72
2023/02/13 09:30:55;;;;;;;66.78;27.05;;;7.80;99.90;;;;;;4993863;28;25095;-72
2023/02/13 09:33:21;;;;;;;69.35;28.55;;;7.70;99.90;;;;;;4987655;28;25161;-73
2023/02/13 09:35:46;;;;;;;73.00;29.23;;;7.80;99.90;;;;;;5001012;28;25155;-73
2023/02/13 09:38:12;;;;;;;67.80;28.27;;;7.80;99.90;;;;;;4996252;28;25078;-72
2023/02/13 09:40:55;;;;;;;60.80;25.85;;;7.90;99.90;;;;;;4976706;28;25074;-73
2023/02/13 09:43:28;;;;;;;65.90;25.42;;;8.10;99.90;;;;;;4992125;28;25104;-72
2023/02/13 09:45:58;;;;;;;67.78;26.60;;;8.10;99.90;;;;;;4998840;28;25105;-71
2023/02/13 09:48:30;;;;;;;67.88;26.67;;;8.20;99.90;;;;;;4995300;28;25135;-72
2023/02/13 09:50:57;;;;;;;;;;;8.20;99.90;;;;;;4989834;28;25101;-74
2023/02/13 09:53:24;;;;;;;59.92;25.48;;;8.10;99.90;;;;;;4995748;28;24062;-71
2023/02/13 09:55:59;;;;;;;60.97;25.25;;;8.30;99.90;;;;;;5003042;28;25101;-73
2023/02/13 09:58:46;;;;;;;63.50;26.67;;;8.10;99.90;;;;;;4999203;28;25048;-71
2023/02/13 10:01:21;;;;;;;64.22;25.02;;;8.10;99.90;;;;;;4999935;28;25065;-72
2023/02/13 10:04:06;;;;;;;58.13;25.23;;;8.00;99.90;;;;;;5003153;28;25119;-72
2023/02/13 10:06:48;;;;;;;63.50;25.60;;;8.10;99.90;;;;;;4996218;28;25080;-73
2023/02/13 10:09:22;;;;;;;63.75;24.83;;;8.30;99.90;;;;;;4996133;28;25145;-72
2023/02/13 10:11:51;;;;;;;56.90;24.15;;;8.30;99.90;;;;;;4996025;28;25158;-74
2023/02/13 10:14:23;;;;;;;52.33;24.00;;;8.60;99.90;;;;;;4995347;28;25071;-73
2023/02/13 10:17:10;;;;;;;51.08;22.17;;;8.70;99.90;;;;;;4996728;28;25064;-74
2023/02/13 10:19:38;;;;;;;52.28;23.30;;;8.70;99.90;;;;;;4988506;28;25128;-74
2023/02/13 10:22:12;;;;;;;55.58;23.20;;;8.80;99.90;;;;;;4993152;28;25149;-73
2023/02/13 10:25:02;;;;;;;56.20;23.77;;;8.90;99.90;;;;;;4993365;28;25117;-72
2023/02/13 10:27:38;;;;;;;42.97;20.80;;;9.00;99.90;;;;;;4996007;28;25098;-72
2023/02/13 10:30:32;;;;;;;52.63;21.75;;;9.00;99.90;;;;;;4979167;28;25069;-73
2023/02/13 10:33:20;;;;;;;49.40;22.92;;;9.00;99.90;;;;;;4994439;28;25062;-73
2023/02/13 10:35:51;;;;;;;45.05;21.38;;;9.00;99.90;;;;;;5003077;28;25104;-73
2023/02/13 10:38:19;;;;;;;47.38;20.02;;;9.30;99.90;;;;;;5001091;28;25064;-73
2023/02/13 10:41:10;;;;;;;40.65;18.00;;;9.30;99.90;;;;;;5006885;28;25156;-73
2023/02/13 10:44:04;;;;;;;40.03;17.75;;;9.40;99.90;;;;;;5016762;28;25057;-73
2023/02/13 10:46:41;;;;;;;35.05;16.58;;;9.60;99.90;;;;;;4981185;28;25143;-72
2023/02/13 10:49:25;;;;;;;40.10;16.05;;;9.70;99.90;;;;;;5007457;28;25139;-74
2023/02/13 10:52:02;;;;;;;38.70;17.52;;;9.90;99.90;;;;;;4998072;28;25157;-76
2023/02/13 10:54:56;;;;;;;36.30;15.63;;;9.70;99.90;;;;;;4983814;28;25126;-72
2023/02/13 10:57:35;;;;;;;39.65;17.50;;;9.90;99.90;;;;;;4986344;28;25066;-72
2023/02/13 11:00:11;;;;;;;37.03;14.77;;;10.40;99.90;;;;;;5006390;28;25090;-73
2023/02/13 11:02:37;;;;;;;32.75;15.88;;;10.70;99.90;;;;;;4994581;28;25065;-73
2023/02/13 11:05:05;;;;;;;32.50;14.82;;;11.10;99.90;;;;;;5005967;28;25053;-72
2023/02/13 11:07:33;;;;;;;30.13;14.98;;;11.30;99.90;;;;;;4998520;28;25146;-73
2023/02/13 11:10:07;;;;;;;33.15;15.07;;;11.30;99.90;;;;;;4997276;28;25102;-74
2023/02/13 11:12:34;;;;;;;33.67;13.48;;;11.40;99.90;;;;;;5004122;28;25062;-72
2023/02/13 11:15:03;;;;;;;28.83;14.80;;;11.40;99.90;;;;;;4982811;28;25130;-73
2023/02/13 11:17:34;;;;;;;33.28;14.98;;;11.50;99.90;;;;;;5002087;28;25051;-72
2023/02/13 11:20:04;;;;;;;39.27;15.80;;;11.50;99.90;;;;;;5006272;28;25055;-72
2023/02/13 11:22:34;;;;;;;33.45;15.70;;;11.50;99.90;;;;;;4998118;28;25104;-73
2023/02/13 11:25:06;;;;;;;34.80;14.63;;;11.40;99.90;;;;;;4992242;28;25083;-72
2023/02/13 11:27:36;;;;;;;27.67;13.45;;;11.40;99.90;;;;;;5012845;28;25060;-72
2023/02/13 11:30:27;;;;;;;25.80;11.73;;;11.60;99.90;;;;;;5008633;28;25142;-73
2023/02/13 11:32:59;;;;;;;24.48;12.98;;;11.90;99.90;;;;;;5001139;28;25069;-73
2023/02/13 11:35:35;;;;;;;28.85;12.43;;;12.20;99.90;;;;;;4990203;28;25175;-72
2023/02/13 11:38:20;;;;;;;26.00;11.18;;;12.10;99.90;;;;;;4997195;28;25118;-73
2023/02/13 11:40:49;;;;;;;25.88;12.65;;;12.30;99.90;;;;;;5000989;28;25082;-72
2023/02/13 11:43:29;;;;;;;27.52;11.75;;;12.40;99.90;;;;;;4996937;28;25071;-72
2023/02/13 11:46:15;;;;;;;25.23;12.02;;;12.80;99.90;;;;;;4980791;28;25110;-73
2023/02/13 11:48:42;;;;;;;21.58;11.52;;;12.90;99.90;;;;;;5000712;28;25167;-73
2023/02/13 11:51:08;;;;;;;28.40;11.75;;;13.20;99.90;;;;;;4993720;28;25143;-73
2023/02/13 11:53:40;;;;;;;23.30;12.20;;;13.20;99.90;;;;;;4996705;28;25081;-72
2023/02/13 11:56:14;;;;;;;28.00;13.70;;;12.80;99.90;;;;;;4981130;28;25194;-75
2023/02/13 11:58:40;;;;;;;29.15;14.07;;;13.20;99.90;;;;;;4999717;28;25103;-72
2023/02/13 12:01:26;;;;;;;27.25;12.88;;;13.00;99.90;;;;;;5001846;28;25071;-71
2023/02/13 12:04:16;;;;;;;26.17;12.68;;;12.90;99.90;;;;;;4998036;28;25079;-71
2023/02/13 12:06:58;;;;;;;28.95;13.07;;;12.40;99.90;;;;;;4990743;28;25110;-73
2023/02/13 12:09:23;;;;;;;23.38;11.93;;;12.60;99.90;;;;;;4996775;28;25093;-72
2023/02/13 12:11:52;;;;;;;29.73;12.95;;;12.70;99.90;;;;;;4992702;28;25089;-73
2023/02/13 12:14:21;;;;;;;20.58;11.73;;;12.60;99.90;;;;;;4995004;28;25117;-70
2023/02/13 12:17:13;;;;;;;26.00;12.98;;;12.70;99.90;;;;;;5008821;28;25114;-74
2023/02/13 12:19:45;;;;;;;28.50;12.60;;;13.10;99.90;;;;;;5004987;28;25063;-72
2023/02/13 12:22:45;;;;;;;27.92;11.85;;;13.30;99.90;;;;;;5006497;28;25095;-72
2023/02/13 12:25:23;;;;;;;25.08;12.15;;;13.70;99.90;;;;;;4988711;28;25145;-71
2023/02/13 12:28:11;;;;;;;26.38;11.65;;;13.80;99.90;;;;;;4997425;28;25059;-72
2023/02/13 12:30:42;;;;;;;29.10;14.35;;;13.20;99.90;;;;;;5000864;28;25061;-72
2023/02/13 12:33:38;;;;;;;26.47;13.17;;;12.60;99.90;;;;;;5008410;28;25096;-72
2023/02/13 12:36:19;;;;;;;26.63;12.85;;;12.70;99.90;;;;;;4996445;28;25101;-72
2023/02/13 12:38:59;;;;;;;28.23;12.88;;;12.90;99.90;;;;;;4995076;28;25084;-72
2023/02/13 12:41:43;;;;;;;27.35;12.98;;;13.30;99.90;;;;;;5002511;28;25057;-70
2023/02/13 12:44:38;;;;;;;28.52;13.38;;;13.00;99.90;;;;;;4989953;28;25067;-71
2023/02/13 12:47:18;;;;;;;25.90;12.93;;;12.90;99.90;;;;;;4996981;28;25146;-72
2023/02/13 12:50:05;;;;;;;28.52;12.65;;;13.00;99.90;;;;;;4995237;28;25082;-72
2023/02/13 12:53:01;;;;;;;27.45;14.02;;;13.50;99.90;;;;;;5002146;28;25144;-72
2023/02/13 12:55:59;;;;;;;29.15;13.38;;;13.50;99.90;;;;;;5000099;28;25081;-72
2023/02/13 12:58:47;;;;;;;26.17;13.00;;;13.40;99.90;;;;;;4979190;28;25134;-70
2023/02/13 13:01:23;;;;;;;25.58;12.88;;;13.20;99.90;;;;;;4996975;28;25094;-72
2023/02/13 13:04:04;;;;;;;25.27;11.82;;;13.00;99.90;;;;;;5001889;28;25079;-72
2023/02/13 13:06:49;;;;;;;23.85;11.95;;;12.50;99.90;;;;;;4986872;28;25139;-71
2023/02/13 13:09:23;;;;;;;22.23;11.32;;;12.70;99.90;;;;;;4978432;28;25070;-72
2023/02/13 13:12:03;;;;;;;24.52;12.23;;;13.10;99.90;;;;;;5002448;28;25084;-71
2023/02/13 13:14:49;;;;;;;22.15;11.05;;;13.20;99.90;;;;;;4991170;28;25177;-71
2023/02/13 13:17:23;;;;;;;21.88;11.23;;;13.50;99.90;;;;;;4971317;28;25117;-72
2023/02/13 13:19:55;;;;;;;22.52;12.02;;;13.60;99.90;;;;;;4982085;28;25102;-72
2023/02/13 13:22:39;;;;;;;25.88;11.48;;;13.90;99.90;;;;;;4993034;28;25048;-72
2023/02/13 13:25:24;;;;;;;25.30;11.13;;;13.70;99.90;;;;;;4991075;28;25056;-71
2023/02/13 13:27:56;;;;;;;19.58;10.93;;;13.80;99.90;;;;;;4991638;28;25165;-72
2023/02/13 13:30:34;;;;;;;24.77;11.18;;;14.20;99.90;;;;;;4994565;28;25105;-72
2023/02/13 13:33:09;;;;;;;22.13;10.95;;;14.30;99.90;;;;;;5000364;28;25121;-72
2023/02/13 13:35:39;;;;;;;23.13;10.63;;;13.60;99.90;;;;;;4994293;28;25076;-72